sensor_id;sensor_type;location;lat;lon;timestamp;temperature;humidity
38910;DHT22;24676;51.360;12.354;2022-07-12T04:02:32;13.40;99.90
38910;DHT22;24676;51.360;12.354;2022-07-12T04:05:16;13.50;99.90
38910;DHT22;24676;51.360;12.354;2022-07-12T04:08:00;13.50;99.90
38910;DHT22;24676;51.360;12.354;2022-07-12T04:10:46;13.60;99.90
38910;DHT22;24676;51.360;12.354;2022-07-12T04:13:30;13.60;99.90
38910;DHT22;24676;51.360;12.354;2022-07-12T04:16:16;13.70;99.90
38910;DHT22;24676;51.360;12.354;2022-07-12T04:19:00;13.80;99.90
38910;DHT22;24676;51.360;12.354;2022-07-12T04:21:46;13.80;99.90
38910;DHT22;24676;51.360;12.354;2022-07-12T04:24:30;13.90;99.90
38910;DHT22;24676;51.360;12.354;2022-07-12T04:27:15;14.10;99.90
38910;DHT22;24676;51.360;12.354;2022-07-12T04:29:59;14.30;99.90
38910;DHT22;24676;51.360;12.354;2022-07-12T04:32:43;14.80;99.90
38910;DHT22;24676;51.360;12.354;2022-07-12T04:35:27;15.60;99.90
38910;DHT22;24676;51.360;12.354;2022-07-12T04:38:11;15.80;99.90
38910;DHT22;24676;51.360;12.354;2022-07-12T04:40:55;16.30;99.90
38910;DHT22;24676;51.360;12.354;2022-07-12T04:43:40;17.60;99.90
38910;DHT22;24676;51.360;12.354;2022-07-12T04:46:24;19.00;99.90
38910;DHT22;24676;51.360;12.354;2022-07-12T04:49:08;20.30;99.90
38910;DHT22;24676;51.360;12.354;2022-07-12T04:51:52;21.30;99.90
38910;DHT22;24676;51.360;12.354;2022-07-12T04:54:36;22.30;99.90
38910;DHT22;24676;51.360;12.354;2022-07-12T04:57:20;23.40;94.30
38910;DHT22;24676;51.360;12.354;2022-07-12T05:00:06;24.30;84.30
38910;DHT22;24676;51.360;12.354;2022-07-12T05:02:51;25.30;74.30
38910;DHT22;24676;51.360;12.354;2022-07-12T05:05:35;25.80;66.90
38910;DHT22;24676;51.360;12.354;2022-07-12T05:08:19;26.40;62.50
38910;DHT22;24676;51.360;12.354;2022-07-12T05:11:04;27.00;59.80
38910;DHT22;24676;51.360;12.354;2022-07-12T05:13:48;27.70;56.50
38910;DHT22;24676;51.360;12.354;2022-07-12T05:16:32;28.50;55.30
38910;DHT22;24676;51.360;12.354;2022-07-12T05:19:17;29.00;52.90
38910;DHT22;24676;51.360;12.354;2022-07-12T05:22:01;29.50;50.50
38910;DHT22;24676;51.360;12.354;2022-07-12T05:24:46;30.40;47.30
38910;DHT22;24676;51.360;12.354;2022-07-12T05:27:30;31.20;45.10
38910;DHT22;24676;51.360;12.354;2022-07-12T05:30:14;31.40;43.90
38910;DHT22;24676;51.360;12.354;2022-07-12T05:32:58;31.70;43.80
38910;DHT22;24676;51.360;12.354;2022-07-12T05:35:43;32.20;41.80
38910;DHT22;24676;51.360;12.354;2022-07-12T05:38:27;32.60;41.30
38910;DHT22;24676;51.360;12.354;2022-07-12T05:41:11;33.10;40.10
38910;DHT22;24676;51.360;12.354;2022-07-12T05:43:55;33.70;39.30
38910;DHT22;24676;51.360;12.354;2022-07-12T05:46:39;34.00;37.60
38910;DHT22;24676;51.360;12.354;2022-07-12T05:49:25;34.20;37.90
38910;DHT22;24676;51.360;12.354;2022-07-12T05:52:09;34.70;36.60
38910;DHT22;24676;51.360;12.354;2022-07-12T05:55:11;34.70;37.20
38910;DHT22;24676;51.360;12.354;2022-07-12T05:57:55;35.80;34.90
38910;DHT22;24676;51.360;12.354;2022-07-12T06:00:39;36.50;34.00
38910;DHT22;24676;51.360;12.354;2022-07-12T06:03:23;36.90;32.70
38910;DHT22;24676;51.360;12.354;2022-07-12T06:06:07;35.90;33.80
38910;DHT22;24676;51.360;12.354;2022-07-12T06:08:52;36.10;33.90
38910;DHT22;24676;51.360;12.354;2022-07-12T06:11:36;36.50;33.20
38910;DHT22;24676;51.360;12.354;2022-07-12T06:14:20;37.10;32.80
38910;DHT22;24676;51.360;12.354;2022-07-12T06:17:04;37.30;32.20
38910;DHT22;24676;51.360;12.354;2022-07-12T06:19:48;37.50;31.50
38910;DHT22;24676;51.360;12.354;2022-07-12T06:22:33;37.70;31.00
38910;DHT22;24676;51.360;12.354;2022-07-12T06:25:17;37.30;31.80
38910;DHT22;24676;51.360;12.354;2022-07-12T06:28:01;37.60;31.60
38910;DHT22;24676;51.360;12.354;2022-07-12T06:30:45;37.40;31.00
38910;DHT22;24676;51.360;12.354;2022-07-12T06:33:30;37.90;31.00
38910;DHT22;24676;51.360;12.354;2022-07-12T06:36:14;37.70;30.80
38910;DHT22;24676;51.360;12.354;2022-07-12T06:38:59;38.20;30.80
38910;DHT22;24676;51.360;12.354;2022-07-12T06:41:43;39.00;29.70
38910;DHT22;24676;51.360;12.354;2022-07-12T06:44:27;39.70;28.90
38910;DHT22;24676;51.360;12.354;2022-07-12T06:47:11;40.50;27.60
38910;DHT22;24676;51.360;12.354;2022-07-12T06:49:56;41.10;26.80
38910;DHT22;24676;51.360;12.354;2022-07-12T06:52:40;41.30;27.10
38910;DHT22;24676;51.360;12.354;2022-07-12T06:55:25;39.70;28.30
38910;DHT22;24676;51.360;12.354;2022-07-12T06:58:10;39.10;28.60
38910;DHT22;24676;51.360;12.354;2022-07-12T07:00:54;38.90;29.30
38910;DHT22;24676;51.360;12.354;2022-07-12T07:03:38;38.60;29.30
38910;DHT22;24676;51.360;12.354;2022-07-12T07:06:22;38.30;29.80
38910;DHT22;24676;51.360;12.354;2022-07-12T07:09:06;38.70;29.10
38910;DHT22;24676;51.360;12.354;2022-07-12T07:11:51;38.50;29.70
38910;DHT22;24676;51.360;12.354;2022-07-12T07:14:35;38.60;28.90
38910;DHT22;24676;51.360;12.354;2022-07-12T07:17:19;39.00;28.10
38910;DHT22;24676;51.360;12.354;2022-07-12T07:20:03;39.80;27.40
38910;DHT22;24676;51.360;12.354;2022-07-12T07:22:48;41.10;26.20
38910;DHT22;24676;51.360;12.354;2022-07-12T07:25:32;41.10;26.30
38910;DHT22;24676;51.360;12.354;2022-07-12T07:28:16;40.90;26.50
38910;DHT22;24676;51.360;12.354;2022-07-12T07:31:01;41.90;25.10
38910;DHT22;24676;51.360;12.354;2022-07-12T07:33:45;43.00;24.10
38910;DHT22;24676;51.360;12.354;2022-07-12T07:36:30;44.40;23.20
38910;DHT22;24676;51.360;12.354;2022-07-12T07:39:14;44.70;22.90
38910;DHT22;24676;51.360;12.354;2022-07-12T07:41:58;44.60;22.50
38910;DHT22;24676;51.360;12.354;2022-07-12T07:44:43;44.10;23.10
38910;DHT22;24676;51.360;12.354;2022-07-12T07:47:27;43.00;23.90
38910;DHT22;24676;51.360;12.354;2022-07-12T07:50:11;42.60;24.30
38910;DHT22;24676;51.360;12.354;2022-07-12T07:52:56;41.50;25.10
38910;DHT22;24676;51.360;12.354;2022-07-12T07:55:40;41.20;24.70
38910;DHT22;24676;51.360;12.354;2022-07-12T07:58:25;41.00;26.00
38910;DHT22;24676;51.360;12.354;2022-07-12T08:01:09;40.70;25.80
38910;DHT22;24676;51.360;12.354;2022-07-12T08:03:53;42.00;24.80
38910;DHT22;24676;51.360;12.354;2022-07-12T08:06:37;41.90;24.50
38910;DHT22;24676;51.360;12.354;2022-07-12T08:09:22;42.50;24.20
38910;DHT22;24676;51.360;12.354;2022-07-12T08:12:06;42.10;24.30
38910;DHT22;24676;51.360;12.354;2022-07-12T08:14:50;41.90;24.80
38910;DHT22;24676;51.360;12.354;2022-07-12T08:17:35;42.30;22.30
38910;DHT22;24676;51.360;12.354;2022-07-12T08:20:24;42.20;23.00
38910;DHT22;24676;51.360;12.354;2022-07-12T08:23:09;42.10;22.40
38910;DHT22;24676;51.360;12.354;2022-07-12T08:25:54;41.90;22.70
38910;DHT22;24676;51.360;12.354;2022-07-12T08:28:38;41.60;23.80
38910;DHT22;24676;51.360;12.354;2022-07-12T08:31:22;40.10;24.10
38910;DHT22;24676;51.360;12.354;2022-07-12T08:34:07;38.40;24.60
38910;DHT22;24676;51.360;12.354;2022-07-12T08:36:51;37.10;26.50
38910;DHT22;24676;51.360;12.354;2022-07-12T08:39:35;35.60;27.30
38910;DHT22;24676;51.360;12.354;2022-07-12T08:42:19;34.20;29.70
38910;DHT22;24676;51.360;12.354;2022-07-12T08:45:03;33.40;30.30
38910;DHT22;24676;51.360;12.354;2022-07-12T08:47:47;32.70;31.10
38910;DHT22;24676;51.360;12.354;2022-07-12T08:50:31;32.30;32.40
38910;DHT22;24676;51.360;12.354;2022-07-12T08:53:15;31.90;32.30
38910;DHT22;24676;51.360;12.354;2022-07-12T08:56:00;31.50;32.30
38910;DHT22;24676;51.360;12.354;2022-07-12T08:58:45;31.10;34.20
38910;DHT22;24676;51.360;12.354;2022-07-12T09:01:39;30.50;35.10
38910;DHT22;24676;51.360;12.354;2022-07-12T09:04:24;30.20;35.40
38910;DHT22;24676;51.360;12.354;2022-07-12T09:07:15;30.10;37.20
38910;DHT22;24676;51.360;12.354;2022-07-12T09:10:02;29.30;37.70
38910;DHT22;24676;51.360;12.354;2022-07-12T09:12:46;29.40;36.50
38910;DHT22;24676;51.360;12.354;2022-07-12T09:15:32;29.40;37.70
38910;DHT22;24676;51.360;12.354;2022-07-12T09:18:17;29.00;36.90
38910;DHT22;24676;51.360;12.354;2022-07-12T09:21:02;28.40;38.40
38910;DHT22;24676;51.360;12.354;2022-07-12T09:23:53;27.90;38.90
38910;DHT22;24676;51.360;12.354;2022-07-12T09:26:37;27.90;40.80
38910;DHT22;24676;51.360;12.354;2022-07-12T09:29:21;28.50;38.10
38910;DHT22;24676;51.360;12.354;2022-07-12T09:32:06;29.20;36.20
38910;DHT22;24676;51.360;12.354;2022-07-12T09:35:09;29.80;36.50
38910;DHT22;24676;51.360;12.354;2022-07-12T09:38:12;30.30;35.50
38910;DHT22;24676;51.360;12.354;2022-07-12T09:40:56;30.80;34.40
38910;DHT22;24676;51.360;12.354;2022-07-12T09:43:41;31.10;34.30
38910;DHT22;24676;51.360;12.354;2022-07-12T09:46:26;30.40;34.90
38910;DHT22;24676;51.360;12.354;2022-07-12T09:49:12;29.50;34.60
38910;DHT22;24676;51.360;12.354;2022-07-12T09:51:57;28.80;35.90
38910;DHT22;24676;51.360;12.354;2022-07-12T09:54:41;28.80;36.40
38910;DHT22;24676;51.360;12.354;2022-07-12T10:00:10;29.80;36.00
38910;DHT22;24676;51.360;12.354;2022-07-12T10:02:55;30.20;33.80
38910;DHT22;24676;51.360;12.354;2022-07-12T10:05:42;30.80;34.50
38910;DHT22;24676;51.360;12.354;2022-07-12T10:08:27;31.20;33.20
38910;DHT22;24676;51.360;12.354;2022-07-12T10:11:11;31.20;30.50
38910;DHT22;24676;51.360;12.354;2022-07-12T10:13:56;31.00;31.30
38910;DHT22;24676;51.360;12.354;2022-07-12T10:16:43;30.80;35.50
38910;DHT22;24676;51.360;12.354;2022-07-12T10:19:29;30.70;34.50
38910;DHT22;24676;51.360;12.354;2022-07-12T10:22:20;30.90;33.60
38910;DHT22;24676;51.360;12.354;2022-07-12T10:25:05;31.90;32.20
38910;DHT22;24676;51.360;12.354;2022-07-12T10:28:09;32.90;30.40
38910;DHT22;24676;51.360;12.354;2022-07-12T10:30:54;33.90;29.30
38910;DHT22;24676;51.360;12.354;2022-07-12T10:33:38;34.70;28.40
38910;DHT22;24676;51.360;12.354;2022-07-12T10:36:22;35.60;27.80
38910;DHT22;24676;51.360;12.354;2022-07-12T10:39:12;35.70;26.40
38910;DHT22;24676;51.360;12.354;2022-07-12T10:42:13;36.70;26.10
38910;DHT22;24676;51.360;12.354;2022-07-12T10:45:13;37.50;26.60
38910;DHT22;24676;51.360;12.354;2022-07-12T10:48:00;36.90;25.90
38910;DHT22;24676;51.360;12.354;2022-07-12T10:53:31;33.10;29.60
38910;DHT22;24676;51.360;12.354;2022-07-12T10:56:19;32.50;31.80
38910;DHT22;24676;51.360;12.354;2022-07-12T10:59:04;32.70;30.40
38910;DHT22;24676;51.360;12.354;2022-07-12T11:01:50;33.40;28.50
38910;DHT22;24676;51.360;12.354;2022-07-12T11:04:46;34.00;27.30
38910;DHT22;24676;51.360;12.354;2022-07-12T11:07:31;33.70;29.60
38910;DHT22;24676;51.360;12.354;2022-07-12T11:10:15;33.50;28.80
38910;DHT22;24676;51.360;12.354;2022-07-12T11:12:59;33.40;28.00
38910;DHT22;24676;51.360;12.354;2022-07-12T11:16:04;33.50;28.80
38910;DHT22;24676;51.360;12.354;2022-07-12T11:18:48;34.20;28.50
38910;DHT22;24676;51.360;12.354;2022-07-12T11:21:32;33.50;27.40
38910;DHT22;24676;51.360;12.354;2022-07-12T11:24:18;32.50;28.50
38910;DHT22;24676;51.360;12.354;2022-07-12T11:27:03;32.40;29.40
38910;DHT22;24676;51.360;12.354;2022-07-12T11:29:59;32.50;29.80
38910;DHT22;24676;51.360;12.354;2022-07-12T11:32:43;32.50;28.50
38910;DHT22;24676;51.360;12.354;2022-07-12T11:35:27;32.80;28.90
38910;DHT22;24676;51.360;12.354;2022-07-12T11:38:12;32.80;28.40
38910;DHT22;24676;51.360;12.354;2022-07-12T11:41:01;32.90;28.40
38910;DHT22;24676;51.360;12.354;2022-07-12T11:43:46;33.00;28.00
38910;DHT22;24676;51.360;12.354;2022-07-12T11:46:30;33.00;28.30
38910;DHT22;24676;51.360;12.354;2022-07-12T11:49:15;33.20;27.60
38910;DHT22;24676;51.360;12.354;2022-07-12T11:51:59;33.60;27.30
38910;DHT22;24676;51.360;12.354;2022-07-12T11:54:44;34.20;27.60
38910;DHT22;24676;51.360;12.354;2022-07-12T11:57:29;35.30;27.20
38910;DHT22;24676;51.360;12.354;2022-07-12T12:00:21;35.70;26.60
38910;DHT22;24676;51.360;12.354;2022-07-12T12:03:07;36.40;25.50
38910;DHT22;24676;51.360;12.354;2022-07-12T12:05:54;36.90;25.80
38910;DHT22;24676;51.360;12.354;2022-07-12T12:08:38;35.60;26.00
38910;DHT22;24676;51.360;12.354;2022-07-12T12:11:29;35.60;26.00
38910;DHT22;24676;51.360;12.354;2022-07-12T12:14:13;36.60;25.90
38910;DHT22;24676;51.360;12.354;2022-07-12T12:16:57;36.90;25.50
38910;DHT22;24676;51.360;12.354;2022-07-12T12:19:42;36.80;25.40
38910;DHT22;24676;51.360;12.354;2022-07-12T12:22:33;35.70;25.80
38910;DHT22;24676;51.360;12.354;2022-07-12T12:25:18;35.50;25.80
38910;DHT22;24676;51.360;12.354;2022-07-12T12:28:05;36.00;25.30
38910;DHT22;24676;51.360;12.354;2022-07-12T12:30:55;36.90;23.50
38910;DHT22;24676;51.360;12.354;2022-07-12T12:33:44;37.20;23.50
38910;DHT22;24676;51.360;12.354;2022-07-12T12:36:31;38.10;23.40
38910;DHT22;24676;51.360;12.354;2022-07-12T12:39:29;38.30;23.20
38910;DHT22;24676;51.360;12.354;2022-07-12T12:42:26;38.90;23.40
38910;DHT22;24676;51.360;12.354;2022-07-12T12:45:24;37.90;24.40
38910;DHT22;24676;51.360;12.354;2022-07-12T12:48:09;37.30;24.60
38910;DHT22;24676;51.360;12.354;2022-07-12T12:51:08;35.90;25.10
38910;DHT22;24676;51.360;12.354;2022-07-12T12:53:56;35.60;24.90
38910;DHT22;24676;51.360;12.354;2022-07-12T12:56:41;35.00;26.40
38910;DHT22;24676;51.360;12.354;2022-07-12T12:59:26;34.60;26.80
38910;DHT22;24676;51.360;12.354;2022-07-12T13:02:10;33.60;26.60
38910;DHT22;24676;51.360;12.354;2022-07-12T13:04:57;32.50;27.40
38910;DHT22;24676;51.360;12.354;2022-07-12T13:07:40;31.60;29.40
38910;DHT22;24676;51.360;12.354;2022-07-12T13:10:25;30.70;31.00
38910;DHT22;24676;51.360;12.354;2022-07-12T13:13:10;30.30;31.80
38910;DHT22;24676;51.360;12.354;2022-07-12T13:15:54;30.00;32.30
38910;DHT22;24676;51.360;12.354;2022-07-12T13:18:39;29.60;32.80
38910;DHT22;24676;51.360;12.354;2022-07-12T13:21:24;29.30;32.10
38910;DHT22;24676;51.360;12.354;2022-07-12T13:24:08;29.10;31.80
38910;DHT22;24676;51.360;12.354;2022-07-12T13:26:52;29.00;33.40
38910;DHT22;24676;51.360;12.354;2022-07-12T13:29:36;28.90;33.10
38910;DHT22;24676;51.360;12.354;2022-07-12T13:32:20;28.80;32.50
38910;DHT22;24676;51.360;12.354;2022-07-12T13:35:06;28.60;32.80
38910;DHT22;24676;51.360;12.354;2022-07-12T13:37:50;28.70;32.50
38910;DHT22;24676;51.360;12.354;2022-07-12T13:40:35;28.70;33.30
38910;DHT22;24676;51.360;12.354;2022-07-12T13:43:20;28.80;32.50
38910;DHT22;24676;51.360;12.354;2022-07-12T13:46:04;28.80;31.90
38910;DHT22;24676;51.360;12.354;2022-07-12T13:48:49;28.80;32.00
38910;DHT22;24676;51.360;12.354;2022-07-12T13:51:33;28.80;32.60
38910;DHT22;24676;51.360;12.354;2022-07-12T13:54:17;28.80;32.20
38910;DHT22;24676;51.360;12.354;2022-07-12T13:57:01;28.70;33.20
38910;DHT22;24676;51.360;12.354;2022-07-12T13:59:45;28.70;32.60
38910;DHT22;24676;51.360;12.354;2022-07-12T14:02:29;28.70;32.80
38910;DHT22;24676;51.360;12.354;2022-07-12T14:05:14;28.70;32.70
38910;DHT22;24676;51.360;12.354;2022-07-12T14:07:59;28.70;32.70
38910;DHT22;24676;51.360;12.354;2022-07-12T14:10:43;28.70;32.60
38910;DHT22;24676;51.360;12.354;2022-07-12T14:13:28;28.60;32.30
38910;DHT22;24676;51.360;12.354;2022-07-12T14:16:12;28.60;33.70
38910;DHT22;24676;51.360;12.354;2022-07-12T14:18:58;28.60;33.30
38910;DHT22;24676;51.360;12.354;2022-07-12T14:21:42;28.60;32.60
38910;DHT22;24676;51.360;12.354;2022-07-12T14:24:26;28.50;33.40
38910;DHT22;24676;51.360;12.354;2022-07-12T14:27:12;28.40;32.90
38910;DHT22;24676;51.360;12.354;2022-07-12T14:29:56;28.40;33.00
38910;DHT22;24676;51.360;12.354;2022-07-12T14:32:40;28.50;33.10
38910;DHT22;24676;51.360;12.354;2022-07-12T14:35:25;28.40;32.90
38910;DHT22;24676;51.360;12.354;2022-07-12T14:38:09;28.40;32.50
38910;DHT22;24676;51.360;12.354;2022-07-12T14:40:53;28.30;32.20
38910;DHT22;24676;51.360;12.354;2022-07-12T14:43:38;28.10;32.80
38910;DHT22;24676;51.360;12.354;2022-07-12T14:46:22;28.00;33.30
38910;DHT22;24676;51.360;12.354;2022-07-12T14:49:06;28.00;33.20
38910;DHT22;24676;51.360;12.354;2022-07-12T14:51:51;28.00;32.80
38910;DHT22;24676;51.360;12.354;2022-07-12T14:54:35;27.90;32.70
38910;DHT22;24676;51.360;12.354;2022-07-12T14:57:19;27.70;32.70
38910;DHT22;24676;51.360;12.354;2022-07-12T15:00:03;27.60;32.90
38910;DHT22;24676;51.360;12.354;2022-07-12T15:02:51;27.60;33.40
38910;DHT22;24676;51.360;12.354;2022-07-12T15:05:35;27.70;33.90
38910;DHT22;24676;51.360;12.354;2022-07-12T15:08:19;27.70;34.10
38910;DHT22;24676;51.360;12.354;2022-07-12T15:11:03;27.70;33.90
38910;DHT22;24676;51.360;12.354;2022-07-12T15:13:48;27.70;33.40
38910;DHT22;24676;51.360;12.354;2022-07-12T15:16:32;27.60;33.30
38910;DHT22;24676;51.360;12.354;2022-07-12T15:19:16;27.60;33.80
38910;DHT22;24676;51.360;12.354;2022-07-12T15:22:00;27.50;33.10
38910;DHT22;24676;51.360;12.354;2022-07-12T15:24:45;27.50;33.70
38910;DHT22;24676;51.360;12.354;2022-07-12T15:27:29;27.40;34.00
38910;DHT22;24676;51.360;12.354;2022-07-12T15:30:13;27.40;33.80
38910;DHT22;24676;51.360;12.354;2022-07-12T15:32:57;27.40;33.70
38910;DHT22;24676;51.360;12.354;2022-07-12T15:35:41;27.40;33.80
38910;DHT22;24676;51.360;12.354;2022-07-12T15:38:26;27.40;33.50
38910;DHT22;24676;51.360;12.354;2022-07-12T15:41:11;27.40;34.30
38910;DHT22;24676;51.360;12.354;2022-07-12T15:43:55;27.30;34.50
38910;DHT22;24676;51.360;12.354;2022-07-12T15:46:39;27.20;34.20
38910;DHT22;24676;51.360;12.354;2022-07-12T15:49:25;27.20;34.40
38910;DHT22;24676;51.360;12.354;2022-07-12T15:52:09;27.20;34.70
38910;DHT22;24676;51.360;12.354;2022-07-12T15:55:11;27.10;34.70
38910;DHT22;24676;51.360;12.354;2022-07-12T15:57:59;27.00;34.50
38910;DHT22;24676;51.360;12.354;2022-07-12T16:00:43;26.90;34.80
38910;DHT22;24676;51.360;12.354;2022-07-12T16:03:28;26.90;34.90
38910;DHT22;24676;51.360;12.354;2022-07-12T16:06:13;26.90;35.10
38910;DHT22;24676;51.360;12.354;2022-07-12T16:08:58;26.80;35.70
38910;DHT22;24676;51.360;12.354;2022-07-12T16:11:43;26.90;35.60
38910;DHT22;24676;51.360;12.354;2022-07-12T16:14:27;26.90;35.80
38910;DHT22;24676;51.360;12.354;2022-07-12T16:17:14;26.90;36.20
38910;DHT22;24676;51.360;12.354;2022-07-12T16:19:59;26.90;35.20
38910;DHT22;24676;51.360;12.354;2022-07-12T16:22:44;26.80;35.60
38910;DHT22;24676;51.360;12.354;2022-07-12T16:25:28;26.90;35.50
38910;DHT22;24676;51.360;12.354;2022-07-12T16:28:12;26.80;35.70
38910;DHT22;24676;51.360;12.354;2022-07-12T16:30:57;26.80;35.80
38910;DHT22;24676;51.360;12.354;2022-07-12T16:33:41;26.80;35.70
38910;DHT22;24676;51.360;12.354;2022-07-12T16:36:26;26.80;35.40
38910;DHT22;24676;51.360;12.354;2022-07-12T16:39:12;26.80;35.60
38910;DHT22;24676;51.360;12.354;2022-07-12T16:41:56;26.70;35.80
38910;DHT22;24676;51.360;12.354;2022-07-12T16:44:40;26.70;35.90
38910;DHT22;24676;51.360;12.354;2022-07-12T16:47:25;26.70;36.30
38910;DHT22;24676;51.360;12.354;2022-07-12T16:50:10;26.60;36.50
38910;DHT22;24676;51.360;12.354;2022-07-12T16:52:53;26.50;36.40
38910;DHT22;24676;51.360;12.354;2022-07-12T16:55:38;26.50;36.80
38910;DHT22;24676;51.360;12.354;2022-07-12T16:58:23;26.50;36.60
38910;DHT22;24676;51.360;12.354;2022-07-12T17:01:08;26.50;36.90
38910;DHT22;24676;51.360;12.354;2022-07-12T17:03:52;26.50;37.20
38910;DHT22;24676;51.360;12.354;2022-07-12T17:06:37;26.40;37.20
38910;DHT22;24676;51.360;12.354;2022-07-12T17:09:21;26.40;37.50
38910;DHT22;24676;51.360;12.354;2022-07-12T17:12:06;26.40;37.30
38910;DHT22;24676;51.360;12.354;2022-07-12T17:14:54;26.40;37.70
38910;DHT22;24676;51.360;12.354;2022-07-12T17:17:38;26.40;36.90
38910;DHT22;24676;51.360;12.354;2022-07-12T17:20:22;26.30;36.80
38910;DHT22;24676;51.360;12.354;2022-07-12T17:23:06;26.20;37.10
38910;DHT22;24676;51.360;12.354;2022-07-12T17:25:51;26.10;37.40
38910;DHT22;24676;51.360;12.354;2022-07-12T17:28:35;26.10;37.60
38910;DHT22;24676;51.360;12.354;2022-07-12T17:31:19;26.00;37.80
38910;DHT22;24676;51.360;12.354;2022-07-12T17:34:03;26.00;38.10
38910;DHT22;24676;51.360;12.354;2022-07-12T17:36:47;25.90;38.50
38910;DHT22;24676;51.360;12.354;2022-07-12T17:39:32;25.90;38.50
38910;DHT22;24676;51.360;12.354;2022-07-12T17:42:16;25.80;38.30
38910;DHT22;24676;51.360;12.354;2022-07-12T17:45:00;25.80;38.60
38910;DHT22;24676;51.360;12.354;2022-07-12T17:47:45;25.80;38.90
38910;DHT22;24676;51.360;12.354;2022-07-12T17:50:30;25.70;38.70
38910;DHT22;24676;51.360;12.354;2022-07-12T17:53:14;25.60;38.90
38910;DHT22;24676;51.360;12.354;2022-07-12T17:55:58;25.50;39.00
38910;DHT22;24676;51.360;12.354;2022-07-12T17:58:43;25.40;39.30
38910;DHT22;24676;51.360;12.354;2022-07-12T18:01:28;25.30;39.80
38910;DHT22;24676;51.360;12.354;2022-07-12T18:04:12;25.20;40.10
38910;DHT22;24676;51.360;12.354;2022-07-12T18:06:56;25.10;40.30
38910;DHT22;24676;51.360;12.354;2022-07-12T18:09:41;25.00;40.60
38910;DHT22;24676;51.360;12.354;2022-07-12T18:12:25;24.80;41.10
38910;DHT22;24676;51.360;12.354;2022-07-12T18:15:28;24.80;41.30
38910;DHT22;24676;51.360;12.354;2022-07-12T18:18:13;24.70;41.70
38910;DHT22;24676;51.360;12.354;2022-07-12T18:20:57;24.60;41.80
38910;DHT22;24676;51.360;12.354;2022-07-12T18:23:42;24.50;42.10
38910;DHT22;24676;51.360;12.354;2022-07-12T18:26:27;24.40;43.20
38910;DHT22;24676;51.360;12.354;2022-07-12T18:29:12;24.40;42.70
38910;DHT22;24676;51.360;12.354;2022-07-12T18:31:57;24.30;43.30
38910;DHT22;24676;51.360;12.354;2022-07-12T18:34:41;24.20;43.50
38910;DHT22;24676;51.360;12.354;2022-07-12T18:37:26;24.10;45.30
38910;DHT22;24676;51.360;12.354;2022-07-12T18:40:10;24.00;46.00
38910;DHT22;24676;51.360;12.354;2022-07-12T18:42:54;23.90;46.70
38910;DHT22;24676;51.360;12.354;2022-07-12T18:45:39;23.80;48.00
38910;DHT22;24676;51.360;12.354;2022-07-12T18:48:23;23.70;49.10
38910;DHT22;24676;51.360;12.354;2022-07-12T18:51:11;23.60;51.50
38910;DHT22;24676;51.360;12.354;2022-07-12T18:53:55;23.40;51.70
38910;DHT22;24676;51.360;12.354;2022-07-12T18:56:40;23.30;52.10
38910;DHT22;24676;51.360;12.354;2022-07-12T18:59:24;23.10;53.50
38910;DHT22;24676;51.360;12.354;2022-07-12T19:02:08;23.00;55.10
38910;DHT22;24676;51.360;12.354;2022-07-12T19:04:53;22.90;55.50
38910;DHT22;24676;51.360;12.354;2022-07-12T19:07:37;22.70;55.60
38910;DHT22;24676;51.360;12.354;2022-07-12T19:10:21;22.60;56.20
38910;DHT22;24676;51.360;12.354;2022-07-12T19:13:06;22.50;56.80
38910;DHT22;24676;51.360;12.354;2022-07-12T19:15:50;22.30;57.60
38910;DHT22;24676;51.360;12.354;2022-07-12T19:18:34;22.20;58.30
38910;DHT22;24676;51.360;12.354;2022-07-12T19:21:19;22.10;58.70
38910;DHT22;24676;51.360;12.354;2022-07-12T19:24:04;21.90;58.30
38910;DHT22;24676;51.360;12.354;2022-07-12T19:26:48;21.70;58.60
38910;DHT22;24676;51.360;12.354;2022-07-12T19:29:33;21.60;59.30
38910;DHT22;24676;51.360;12.354;2022-07-12T19:32:17;21.50;59.30
38910;DHT22;24676;51.360;12.354;2022-07-12T19:35:02;21.40;59.20
38910;DHT22;24676;51.360;12.354;2022-07-12T19:37:46;21.20;60.00
38910;DHT22;24676;51.360;12.354;2022-07-12T19:40:31;21.10;61.90
38910;DHT22;24676;51.360;12.354;2022-07-12T19:43:15;21.00;63.40
38910;DHT22;24676;51.360;12.354;2022-07-12T19:46:00;20.90;65.30
38910;DHT22;24676;51.360;12.354;2022-07-12T19:48:44;20.70;67.50
38910;DHT22;24676;51.360;12.354;2022-07-12T19:51:28;20.60;69.80
38910;DHT22;24676;51.360;12.354;2022-07-12T19:54:12;20.50;72.20
38910;DHT22;24676;51.360;12.354;2022-07-12T19:56:56;20.40;75.90
38910;DHT22;24676;51.360;12.354;2022-07-12T19:59:40;20.30;79.30
38910;DHT22;24676;51.360;12.354;2022-07-12T20:02:24;20.20;83.30
38910;DHT22;24676;51.360;12.354;2022-07-12T20:05:09;20.10;86.50
38910;DHT22;24676;51.360;12.354;2022-07-12T20:07:54;20.00;91.50
38910;DHT22;24676;51.360;12.354;2022-07-12T20:10:39;19.90;93.60
38910;DHT22;24676;51.360;12.354;2022-07-12T20:13:23;19.80;95.80
38910;DHT22;24676;51.360;12.354;2022-07-12T20:16:08;19.70;98.30
38910;DHT22;24676;51.360;12.354;2022-07-12T20:18:52;19.60;99.90
38910;DHT22;24676;51.360;12.354;2022-07-12T20:21:37;19.50;99.90
38910;DHT22;24676;51.360;12.354;2022-07-12T20:24:25;19.50;99.90
38910;DHT22;24676;51.360;12.354;2022-07-12T20:27:09;19.40;99.90
38910;DHT22;24676;51.360;12.354;2022-07-12T20:29:54;19.30;99.90
38910;DHT22;24676;51.360;12.354;2022-07-12T20:32:39;19.20;99.90
38910;DHT22;24676;51.360;12.354;2022-07-12T20:35:41;19.10;99.90
38910;DHT22;24676;51.360;12.354;2022-07-12T20:38:25;19.00;99.90
38910;DHT22;24676;51.360;12.354;2022-07-12T20:41:10;19.00;99.90
38910;DHT22;24676;51.360;12.354;2022-07-12T20:43:54;18.90;99.90
38910;DHT22;24676;51.360;12.354;2022-07-12T20:46:39;18.80;99.90
38910;DHT22;24676;51.360;12.354;2022-07-12T20:49:23;18.70;99.90
38910;DHT22;24676;51.360;12.354;2022-07-12T20:52:08;18.70;99.90
38910;DHT22;24676;51.360;12.354;2022-07-12T20:54:52;18.60;99.90
38910;DHT22;24676;51.360;12.354;2022-07-12T20:57:36;18.60;99.90
